Wetterdaten: aktuell Sonntag, 20.01.2019 21:45
Datum Zeit Auentemp. Feuchte A. Luftdruck Niederschl. Wind Richtung Richtung Sonnenschein UV Windben
20.01.2019 21:45 -3,6 C 90 % 1020,9 hPa 0,0 l/m 1,6 km/h O-SO 110 0 min 0,0 UV-I 4,8 km/h
20.01.2019 20:45 -3,8 C 90 % 1020,4 hPa 0,0 l/m 0,8 km/h O-SO 107 0 min 0,0 UV-I 6,4 km/h
20.01.2019 19:45 -3,9 C 90 % 1020,3 hPa 0,0 l/m 1,1 km/h NO 38 0 min 0,0 UV-I 8,0 km/h
20.01.2019 18:45 -4,0 C 92 % 1019,7 hPa 0,0 l/m 1,2 km/h O-NO 61 0 min 0,0 UV-I 4,8 km/h
20.01.2019 17:45 -4,1 C 94 % 1019,1 hPa 0,0 l/m 3,2 km/h NO 52 0 min 0,0 UV-I 6,4 km/h
20.01.2019 16:45 -4,3 C 95 % 1018,5 hPa 0,0 l/m 1,3 km/h O-NO 68 0 min 0,0 UV-I 4,8 km/h
20.01.2019 15:45 -4,5 C 95 % 1018,0 hPa 0,0 l/m 2,5 km/h O-NO 76 0 min 0,0 UV-I 6,4 km/h
20.01.2019 14:45 -4,9 C 95 % 1017,9 hPa 0,0 l/m 1,8 km/h O-NO 71 0 min 0,0 UV-I 6,4 km/h
20.01.2019 13:45 -5,2 C 95 % 1017,7 hPa 0,0 l/m 2,6 km/h O-SO 109 0 min 0,0 UV-I 8,0 km/h
20.01.2019 12:45 -5,4 C 94 % 1017,9 hPa 0,0 l/m 5,0 km/h O-NO 73 0 min 0,0 UV-I 9,7 km/h
20.01.2019 11:45 -5,6 C 95 % 1017,8 hPa 0,0 l/m 1,0 km/h O-SO 111 0 min 0,0 UV-I 3,2 km/h
20.01.2019 10:45 -6,2 C 94 % 1017,7 hPa 0,0 l/m 2,8 km/h O-SO 111 0 min 0,0 UV-I 6,4 km/h
20.01.2019 09:45 -6,4 C 94 % 1017,0 hPa 0,0 l/m 3,7 km/h SO 126 0 min 0,0 UV-I 8,0 km/h
20.01.2019 08:45 -6,4 C 94 % 1016,8 hPa 0,0 l/m 0,0 km/h O-SO 102 0 min 0,0 UV-I 0,0 km/h
20.01.2019 07:45 -6,4 C 94 % 1015,9 hPa 0,0 l/m 3,7 km/h SO 142 0 min 0,0 UV-I 8,0 km/h
20.01.2019 06:45 -6,7 C 94 % 1015,6 hPa 0,0 l/m 0,0 km/h O-SO 112 0 min 0,0 UV-I 4,8 km/h
20.01.2019 05:45 -7,0 C 94 % 1015,6 hPa 0,0 l/m 0,0 km/h N 0 0 min 0,0 UV-I 0,0 km/h
20.01.2019 04:45 -6,9 C 94 % 1015,6 hPa 0,0 l/m 1,6 km/h O-SO 112 0 min 0,0 UV-I 6,4 km/h
20.01.2019 03:45 -7,1 C 94 % 1015,6 hPa 0,0 l/m 0,0 km/h N 0 0 min 0,0 UV-I 0,0 km/h
20.01.2019 02:45 -7,6 C 92 % 1015,9 hPa 0,0 l/m 0,0 km/h N 0 0 min 0,0 UV-I 0,0 km/h
20.01.2019 01:45 -7,9 C 92 % 1015,5 hPa 0,0 l/m 0,0 km/h N 0 0 min 0,0 UV-I 0,0 km/h
20.01.2019 00:45 -7,6 C 92 % 1015,9 hPa 0,0 l/m 0,0 km/h N 0 0 min 0,0 UV-I 0,0 km/h
20.01.2019 00:00 -7,3 C 92 % 1015,9 hPa 0,0 l/m 0,0 km/h N 0 0 min 0,0 UV-I 0,0 km/h
_ Min-Zeit 02:10 21:45 02:10 - 21:40 - - - - 21:30
Minimum _ -8,1 C 90 % 1015,5 hPa - 0,0 km/h - - - - 0,0 km/h
_ Max-Zeit 21:45 14:20 21:45 21:45 20:10 - - 21:45 21:45 21:10
Maximum _ -3,6 C 100 % 1020,9 hPa 0,0 l/m 5,4 km/h
NO
- - 0 min 0,0 UV-I 11,3 km/h
O-NO
Durchschnitt _ -5,8 C 93 % 1017,4 hPa #0,0 l/m 1,2 km/h O-NO - #0 min. 0,0 UV-I 4,0 km/h